Time;durP1;ratioP1;P1;durP2;ratioP2;P2;SDS_P1;SDS_P2;PMS_P1;PMS_P2;Temp;Humidity;BMP_temperature;BMP_pressure;BME280_temperature;BME280_humidity;BME280_pressure;Samples;Min_cycle;Max_cycle;Signal;HPM_P1;HPM_P2
2023/11/16 00:00:12;;;;;;;5.00;4.10;;;;;;;;;;2105925;28;20052;-65
2023/11/16 00:01:32;;;;;;;6.07;4.28;;;;;;;;;;2105852;28;20028;-66
2023/11/16 00:02:52;;;;;;;4.78;4.07;;;;;;;;;;2107420;28;20431;-66
2023/11/16 00:04:11;;;;;;;6.68;4.07;;;;;;;;;;2107595;28;20028;-65
2023/11/16 00:05:35;;;;;;;4.93;3.90;;;;;;;;;;2107520;28;20491;-66
2023/11/16 00:06:54;;;;;;;4.47;3.60;;;;;;;;;;2107374;28;20482;-66
2023/11/16 00:08:13;;;;;;;6.13;3.67;;;;;;;;;;2103999;28;20071;-66
2023/11/16 00:09:32;;;;;;;6.25;3.88;;;;;;;;;;2107000;28;20032;-66
2023/11/16 00:10:54;;;;;;;6.30;3.97;;;;;;;;;;2109780;28;20032;-66
2023/11/16 00:12:14;;;;;;;5.22;4.22;;;;;;;;;;2109674;28;20032;-66
2023/11/16 00:13:33;;;;;;;4.28;3.85;;;;;;;;;;2109728;28;20024;-66
2023/11/16 00:14:51;;;;;;;5.57;3.33;;;;;;;;;;2105653;28;20485;-66
2023/11/16 00:16:11;;;;;;;4.22;3.80;;;;;;;;;;2107676;28;20067;-65
2023/11/16 00:17:30;;;;;;;4.32;3.72;;;;;;;;;;2109491;28;20036;-66
2023/11/16 00:18:49;;;;;;;3.67;3.38;;;;;;;;;;2108199;28;20373;-66
2023/11/16 00:20:10;;;;;;;7.82;3.90;;;;;;;;;;2106338;28;20039;-66
2023/11/16 00:21:30;;;;;;;3.55;3.25;;;;;;;;;;2105825;28;20058;-67
2023/11/16 00:22:49;;;;;;;5.45;3.80;;;;;;;;;;2108995;28;20021;-66
2023/11/16 00:24:08;;;;;;;4.57;3.78;;;;;;;;;;2106194;28;20058;-66
2023/11/16 00:25:31;;;;;;;4.00;3.55;;;;;;;;;;2108002;28;20487;-66
2023/11/16 00:26:50;;;;;;;4.95;3.15;;;;;;;;;;2107084;28;20040;-67
2023/11/16 00:28:09;;;;;;;5.07;3.55;;;;;;;;;;2123090;27;20030;-67
2023/11/16 00:29:28;;;;;;;4.93;3.70;;;;;;;;;;2115187;27;20032;-69
2023/11/16 00:30:47;;;;;;;5.57;3.67;;;;;;;;;;2108811;28;20031;-68
2023/11/16 00:32:06;;;;;;;3.97;3.67;;;;;;;;;;2108663;28;20098;-67
2023/11/16 00:33:25;;;;;;;4.20;3.55;;;;;;;;;;2107167;28;20444;-68
2023/11/16 00:34:44;;;;;;;4.20;3.80;;;;;;;;;;2108410;28;20032;-67
2023/11/16 00:36:07;;;;;;;4.60;4.20;;;;;;;;;;2106037;28;20388;-68
2023/11/16 00:37:26;;;;;;;4.13;2.97;;;;;;;;;;2105016;28;20036;-67
2023/11/16 00:38:44;;;;;;;5.30;4.10;;;;;;;;;;2106577;28;20024;-67
2023/11/16 00:40:04;;;;;;;5.60;3.80;;;;;;;;;;2107598;28;20032;-66
2023/11/16 00:41:24;;;;;;;4.85;3.92;;;;;;;;;;2107608;28;20423;-67
2023/11/16 00:42:43;;;;;;;3.83;3.53;;;;;;;;;;2107595;28;20110;-66
2023/11/16 00:44:04;;;;;;;3.85;3.53;;;;;;;;;;2107357;28;20052;-66
2023/11/16 00:45:24;;;;;;;4.45;4.03;;;;;;;;;;2109604;28;20572;-67
2023/11/16 00:46:43;;;;;;;4.05;3.65;;;;;;;;;;2107359;28;20036;-66
2023/11/16 00:48:02;;;;;;;4.05;3.67;;;;;;;;;;2108177;28;20020;-66
2023/11/16 00:49:21;;;;;;;6.72;3.40;;;;;;;;;;2107907;28;20039;-66
2023/11/16 00:50:40;;;;;;;4.72;3.47;;;;;;;;;;2108327;28;20028;-67
2023/11/16 00:51:59;;;;;;;4.68;3.72;;;;;;;;;;2107618;28;20016;-67
2023/11/16 00:53:18;;;;;;;4.93;3.47;;;;;;;;;;2108564;28;20111;-66
2023/11/16 00:54:37;;;;;;;8.00;4.00;;;;;;;;;;2107007;28;20410;-66
2023/11/16 00:55:56;;;;;;;4.35;3.80;;;;;;;;;;2107987;28;20027;-66
2023/11/16 00:57:18;;;;;;;4.53;3.30;;;;;;;;;;2108592;28;20024;-66
2023/11/16 00:58:38;;;;;;;4.25;3.95;;;;;;;;;;2110241;28;20750;-66
2023/11/16 00:59:57;;;;;;;3.90;3.60;;;;;;;;;;2107936;28;20055;-66
2023/11/16 01:01:16;;;;;;;5.45;4.10;;;;;;;;;;2103388;28;20055;-66
2023/11/16 01:02:35;;;;;;;4.50;3.45;;;;;;;;;;2106714;28;20406;-66
2023/11/16 01:03:55;;;;;;;3.90;3.53;;;;;;;;;;2107976;28;20472;-66
2023/11/16 01:05:16;;;;;;;5.78;4.00;;;;;;;;;;2108470;28;20114;-66
2023/11/16 01:06:36;;;;;;;7.45;4.15;;;;;;;;;;2106410;28;20094;-65
2023/11/16 01:07:55;;;;;;;4.22;3.83;;;;;;;;;;2104285;28;20183;-66
2023/11/16 01:09:16;;;;;;;4.97;4.00;;;;;;;;;;2108144;28;20423;-66
2023/11/16 01:10:37;;;;;;;4.63;4.07;;;;;;;;;;2107632;28;20019;-66
2023/11/16 01:11:57;;;;;;;4.57;4.18;;;;;;;;;;2106424;28;20015;-66
2023/11/16 01:13:23;;;;;;;6.05;4.05;;;;;;;;;;2108177;28;20114;-66
2023/11/16 01:14:43;;;;;;;6.97;3.83;;;;;;;;;;2106140;28;20036;-67
2023/11/16 01:16:04;;;;;;;7.50;4.25;;;;;;;;;;2109367;28;20036;-66
2023/11/16 01:17:26;;;;;;;4.60;4.20;;;;;;;;;;2106922;28;20548;-67
2023/11/16 01:18:52;;;;;;;5.07;4.18;;;;;;;;;;2107316;28;20454;-66
2023/11/16 01:20:18;;;;;;;5.32;4.10;;;;;;;;;;2107463;28;20023;-65
2023/11/16 01:21:41;;;;;;;5.93;4.70;;;;;;;;;;2105605;28;20060;-66
2023/11/16 01:23:11;;;;;;;5.75;4.43;;;;;;;;;;2120366;27;20431;-66
2023/11/16 01:24:35;;;;;;;4.57;4.15;;;;;;;;;;2112200;27;20480;-66
2023/11/16 01:25:54;;;;;;;6.00;4.85;;;;;;;;;;2108403;28;20380;-66
2023/11/16 01:27:16;;;;;;;8.23;4.30;;;;;;;;;;2107994;28;20040;-66
2023/11/16 01:28:35;;;;;;;4.93;3.93;;;;;;;;;;2107548;28;20059;-66
2023/11/16 01:29:54;;;;;;;5.47;4.43;;;;;;;;;;2108442;28;20233;-66
2023/11/16 01:31:14;;;;;;;5.35;4.57;;;;;;;;;;2106242;28;20032;-66
2023/11/16 01:32:33;;;;;;;4.30;3.90;;;;;;;;;;2107258;28;20043;-65
2023/11/16 01:33:52;;;;;;;6.88;5.00;;;;;;;;;;2107566;28;20027;-66
2023/11/16 01:35:11;;;;;;;7.53;4.82;;;;;;;;;;2106449;28;20074;-68
2023/11/16 01:36:31;;;;;;;5.82;4.63;;;;;;;;;;2109372;28;20035;-65
2023/11/16 01:37:50;;;;;;;5.22;4.72;;;;;;;;;;2106969;28;20031;-66
2023/11/16 01:39:11;;;;;;;4.93;4.28;;;;;;;;;;2108178;28;20059;-65
2023/11/16 01:40:29;;;;;;;7.25;4.72;;;;;;;;;;2106851;28;20031;-66
2023/11/16 01:41:48;;;;;;;5.32;4.72;;;;;;;;;;2107639;28;20032;-66
2023/11/16 01:43:08;;;;;;;9.18;5.07;;;;;;;;;;2107761;28;20035;-66
2023/11/16 01:44:28;;;;;;;5.35;4.85;;;;;;;;;;2106821;28;20515;-66
2023/11/16 01:45:47;;;;;;;5.03;4.53;;;;;;;;;;2103712;28;20040;-66
2023/11/16 01:47:08;;;;;;;4.75;4.35;;;;;;;;;;2108822;28;20028;-66
2023/11/16 01:48:29;;;;;;;4.97;4.57;;;;;;;;;;2109136;28;20036;-66
2023/11/16 01:49:48;;;;;;;6.85;5.63;;;;;;;;;;2108547;28;20028;-66
2023/11/16 01:51:08;;;;;;;7.72;5.60;;;;;;;;;;2109159;28;20481;-66
2023/11/16 01:52:27;;;;;;;6.93;5.18;;;;;;;;;;2108444;28;20540;-66
2023/11/16 01:53:48;;;;;;;5.40;4.65;;;;;;;;;;2105302;28;20016;-66
2023/11/16 01:55:07;;;;;;;10.18;5.25;;;;;;;;;;2107037;28;20047;-66
2023/11/16 01:56:31;;;;;;;7.63;4.90;;;;;;;;;;2108667;28;20047;-66
2023/11/16 01:57:52;;;;;;;7.50;5.03;;;;;;;;;;2105891;28;20024;-66
2023/11/16 01:59:11;;;;;;;5.72;4.57;;;;;;;;;;2102168;28;20031;-66
2023/11/16 02:00:34;;;;;;;5.30;4.80;;;;;;;;;;2107051;28;20382;-66
2023/11/16 02:01:55;;;;;;;6.38;5.38;;;;;;;;;;2108270;28;20044;-66
2023/11/16 02:03:14;;;;;;;6.57;5.05;;;;;;;;;;2106168;28;20408;-66
2023/11/16 02:04:34;;;;;;;11.60;6.07;;;;;;;;;;2106593;28;20134;-67
2023/11/16 02:05:54;;;;;;;8.55;5.40;;;;;;;;;;2106505;28;20237;-66
2023/11/16 02:07:13;;;;;;;5.78;5.25;;;;;;;;;;2104316;28;20028;-66
2023/11/16 02:08:35;;;;;;;7.72;5.20;;;;;;;;;;2106682;28;20020;-66
2023/11/16 02:09:54;;;;;;;5.75;4.63;;;;;;;;;;2104775;28;20023;-66
2023/11/16 02:11:13;;;;;;;8.25;4.85;;;;;;;;;;2107296;28;20070;-66
2023/11/16 02:12:32;;;;;;;5.93;4.85;;;;;;;;;;2108952;28;20040;-66
2023/11/16 02:13:51;;;;;;;5.50;4.95;;;;;;;;;;2105166;28;20143;-66
2023/11/16 02:15:11;;;;;;;5.07;4.68;;;;;;;;;;2093098;28;20037;-66
2023/11/16 02:16:31;;;;;;;7.90;5.00;;;;;;;;;;2105205;28;20044;-66
2023/11/16 02:17:50;;;;;;;5.28;4.60;;;;;;;;;;2108330;28;20019;-66
2023/11/16 02:19:31;;;;;;;4.93;4.43;;;;;;;;;;2107808;28;20036;-66
2023/11/16 02:20:53;;;;;;;5.90;5.18;;;;;;;;;;2103143;28;20027;-66
2023/11/16 02:22:12;;;;;;;7.95;5.10;;;;;;;;;;2107033;28;20456;-66
2023/11/16 02:23:32;;;;;;;5.57;4.60;;;;;;;;;;2112947;27;20024;-66
2023/11/16 02:24:52;;;;;;;7.60;5.13;;;;;;;;;;2110575;28;20115;-66
2023/11/16 02:26:11;;;;;;;7.10;5.18;;;;;;;;;;2108316;28;20024;-66
2023/11/16 02:27:30;;;;;;;5.53;4.93;;;;;;;;;;2105548;28;20032;-67
2023/11/16 02:28:48;;;;;;;8.00;4.95;;;;;;;;;;2106978;28;20387;-66
2023/11/16 02:30:07;;;;;;;6.47;4.40;;;;;;;;;;2108364;28;20427;-66
2023/11/16 02:31:26;;;;;;;5.22;4.68;;;;;;;;;;2100181;28;20111;-67
2023/11/16 02:32:45;;;;;;;5.32;4.82;;;;;;;;;;2105292;28;20020;-66
2023/11/16 02:34:05;;;;;;;6.07;4.93;;;;;;;;;;2107457;28;20032;-66
2023/11/16 02:35:24;;;;;;;6.60;4.70;;;;;;;;;;2103366;28;20035;-66
2023/11/16 02:36:43;;;;;;;8.40;5.30;;;;;;;;;;2106277;28;20055;-67
2023/11/16 02:38:06;;;;;;;6.88;4.75;;;;;;;;;;2107738;28;20049;-66
2023/11/16 02:39:25;;;;;;;7.38;4.80;;;;;;;;;;2107463;28;20371;-66
2023/11/16 02:40:44;;;;;;;6.20;5.07;;;;;;;;;;2105458;28;20123;-66
2023/11/16 02:42:05;;;;;;;5.03;4.45;;;;;;;;;;2106936;28;20029;-66
2023/11/16 02:43:29;;;;;;;5.50;4.75;;;;;;;;;;2105390;28;20035;-66
2023/11/16 02:44:48;;;;;;;5.80;4.43;;;;;;;;;;2108283;28;20036;-66
2023/11/16 02:46:07;;;;;;;9.48;4.90;;;;;;;;;;2109411;28;20055;-66
2023/11/16 02:47:30;;;;;;;7.03;5.18;;;;;;;;;;2107729;28;20054;-66
2023/11/16 02:48:50;;;;;;;5.45;4.38;;;;;;;;;;2108464;28;20028;-66
2023/11/16 02:50:09;;;;;;;7.53;5.35;;;;;;;;;;2109388;28;20024;-66
2023/11/16 02:51:28;;;;;;;8.82;4.90;;;;;;;;;;2109841;28;20480;-66
2023/11/16 02:52:47;;;;;;;6.13;4.25;;;;;;;;;;2107246;28;20043;-66
2023/11/16 02:54:06;;;;;;;4.50;4.10;;;;;;;;;;2108176;28;20098;-66
2023/11/16 02:55:25;;;;;;;5.93;4.22;;;;;;;;;;2107428;28;20118;-66
2023/11/16 02:56:45;;;;;;;4.57;4.03;;;;;;;;;;2106470;28;20120;-66
2023/11/16 02:58:06;;;;;;;5.68;4.38;;;;;;;;;;2109384;28;20037;-66
2023/11/16 02:59:24;;;;;;;4.85;4.40;;;;;;;;;;2110112;28;20055;-66
2023/11/16 03:00:44;;;;;;;6.47;4.03;;;;;;;;;;2106447;28;20028;-66
2023/11/16 03:02:04;;;;;;;6.22;4.07;;;;;;;;;;2110100;28;20032;-66
2023/11/16 03:03:24;;;;;;;5.97;4.20;;;;;;;;;;2107730;28;20039;-66
2023/11/16 03:04:44;;;;;;;4.43;4.03;;;;;;;;;;2109769;28;20032;-66
2023/11/16 03:06:03;;;;;;;4.75;4.20;;;;;;;;;;2106800;28;20032;-66
2023/11/16 03:07:23;;;;;;;6.82;5.13;;;;;;;;;;2107511;28;20491;-66
2023/11/16 03:08:42;;;;;;;5.60;4.10;;;;;;;;;;2107351;28;20028;-66
2023/11/16 03:10:03;;;;;;;4.30;3.90;;;;;;;;;;2108000;28;20617;-66
2023/11/16 03:11:25;;;;;;;4.40;4.00;;;;;;;;;;2108579;28;20020;-66
2023/11/16 03:12:48;;;;;;;4.80;3.92;;;;;;;;;;2107779;28;20027;-66
2023/11/16 03:14:08;;;;;;;5.18;4.13;;;;;;;;;;2106824;28;20326;-66
2023/11/16 03:15:27;;;;;;;6.13;4.28;;;;;;;;;;2107756;28;20070;-65
2023/11/16 03:16:47;;;;;;;4.75;4.18;;;;;;;;;;2109445;28;20027;-66
2023/11/16 03:18:06;;;;;;;6.97;4.60;;;;;;;;;;2107611;28;20027;-66
2023/11/16 03:19:25;;;;;;;4.70;4.10;;;;;;;;;;2108850;28;20028;-66
2023/11/16 03:20:45;;;;;;;4.72;4.25;;;;;;;;;;2109167;28;20031;-66
2023/11/16 03:22:04;;;;;;;4.25;3.85;;;;;;;;;;2108826;28;20028;-66
2023/11/16 03:23:23;;;;;;;6.03;4.28;;;;;;;;;;2109853;28;20036;-66
2023/11/16 03:24:42;;;;;;;8.60;4.40;;;;;;;;;;2110468;28;20028;-66
2023/11/16 03:26:03;;;;;;;5.50;4.30;;;;;;;;;;2109086;28;20024;-66
2023/11/16 03:27:25;;;;;;;4.32;3.95;;;;;;;;;;2109729;28;20024;-66
2023/11/16 03:28:44;;;;;;;4.85;3.45;;;;;;;;;;2108656;28;20016;-66
2023/11/16 03:30:04;;;;;;;4.68;4.05;;;;;;;;;;2108027;28;20556;-66
2023/11/16 03:31:25;;;;;;;5.15;4.30;;;;;;;;;;2110633;28;20024;-66
2023/11/16 03:32:47;;;;;;;4.05;3.72;;;;;;;;;;2108021;28;20986;-66
2023/11/16 03:34:06;;;;;;;5.95;4.40;;;;;;;;;;2107495;28;20024;-66
2023/11/16 03:35:25;;;;;;;6.13;3.55;;;;;;;;;;2108828;28;20024;-67
2023/11/16 03:36:45;;;;;;;6.00;4.10;;;;;;;;;;2109335;28;20024;-66
2023/11/16 03:38:05;;;;;;;5.85;4.00;;;;;;;;;;2107458;28;20032;-66
2023/11/16 03:39:25;;;;;;;4.20;3.90;;;;;;;;;;2107815;28;20032;-66
2023/11/16 03:40:44;;;;;;;5.18;4.00;;;;;;;;;;2108682;28;20024;-67
2023/11/16 03:42:03;;;;;;;7.15;4.32;;;;;;;;;;2109049;28;20035;-67
2023/11/16 03:43:23;;;;;;;4.63;3.88;;;;;;;;;;2110756;28;20048;-66
2023/11/16 03:44:41;;;;;;;6.55;4.25;;;;;;;;;;2109448;28;20044;-66
2023/11/16 03:46:00;;;;;;;9.40;4.15;;;;;;;;;;2101899;28;20571;-66
2023/11/16 03:47:19;;;;;;;6.57;4.68;;;;;;;;;;2107386;28;20040;-66
2023/11/16 03:48:37;;;;;;;4.07;3.72;;;;;;;;;;2108823;28;20020;-66
2023/11/16 03:49:58;;;;;;;5.28;3.38;;;;;;;;;;2107241;28;20019;-66
2023/11/16 03:51:18;;;;;;;4.22;3.70;;;;;;;;;;2108906;28;20059;-66
2023/11/16 03:52:37;;;;;;;4.50;4.10;;;;;;;;;;2107736;28;20028;-66
2023/11/16 03:53:59;;;;;;;8.13;5.70;;;;;;;;;;2107431;28;20015;-66
2023/11/16 03:55:19;;;;;;;5.93;3.35;;;;;;;;;;2108522;28;20043;-66
2023/11/16 03:56:38;;;;;;;5.53;3.70;;;;;;;;;;2107239;28;20055;-66
2023/11/16 03:57:56;;;;;;;5.68;3.90;;;;;;;;;;2108557;28;20032;-66
2023/11/16 03:59:16;;;;;;;5.07;3.50;;;;;;;;;;2107719;28;20035;-66
2023/11/16 04:00:35;;;;;;;4.68;4.20;;;;;;;;;;2107081;28;20028;-66
2023/11/16 04:01:55;;;;;;;4.78;3.72;;;;;;;;;;2107067;28;20032;-67
2023/11/16 04:03:13;;;;;;;5.07;3.95;;;;;;;;;;2110335;28;20032;-67
2023/11/16 04:04:32;;;;;;;4.32;3.50;;;;;;;;;;2122564;27;20027;-66
2023/11/16 04:05:51;;;;;;;5.47;3.95;;;;;;;;;;2115175;27;20020;-66
2023/11/16 04:07:11;;;;;;;8.00;3.70;;;;;;;;;;2108209;28;20023;-66
2023/11/16 04:08:30;;;;;;;6.38;3.97;;;;;;;;;;2108016;28;20044;-66
2023/11/16 04:09:49;;;;;;;5.05;3.60;;;;;;;;;;2107530;28;20066;-66
2023/11/16 04:11:09;;;;;;;5.75;3.45;;;;;;;;;;2107235;28;20028;-66
2023/11/16 04:12:28;;;;;;;4.60;3.40;;;;;;;;;;2105534;28;20487;-66
2023/11/16 04:13:47;;;;;;;4.10;3.28;;;;;;;;;;2107036;28;20031;-66
2023/11/16 04:15:08;;;;;;;5.75;4.03;;;;;;;;;;2106852;28;20031;-66
2023/11/16 04:16:27;;;;;;;3.88;3.28;;;;;;;;;;2107175;28;20028;-66
2023/11/16 04:17:46;;;;;;;3.55;3.30;;;;;;;;;;2108613;28;20032;-66
2023/11/16 04:19:05;;;;;;;3.92;3.60;;;;;;;;;;2107435;28;20434;-67
2023/11/16 04:20:27;;;;;;;8.38;3.80;;;;;;;;;;2108861;28;20031;-66
2023/11/16 04:21:46;;;;;;;5.97;3.70;;;;;;;;;;2106535;28;20434;-66
2023/11/16 04:23:05;;;;;;;5.13;4.13;;;;;;;;;;2106378;28;20672;-66
2023/11/16 04:24:24;;;;;;;4.90;3.35;;;;;;;;;;2107844;28;20028;-66
2023/11/16 04:25:44;;;;;;;5.00;3.60;;;;;;;;;;2106756;28;20027;-66
2023/11/16 04:27:05;;;;;;;6.82;3.45;;;;;;;;;;2107365;28;20032;-66
2023/11/16 04:28:25;;;;;;;6.47;3.30;;;;;;;;;;2108038;28;20028;-66
2023/11/16 04:29:45;;;;;;;5.05;3.35;;;;;;;;;;2109607;28;20028;-66
2023/11/16 04:31:04;;;;;;;5.53;3.60;;;;;;;;;;2108092;28;20020;-66
2023/11/16 04:32:23;;;;;;;4.78;3.50;;;;;;;;;;2106913;28;20425;-66
2023/11/16 04:33:42;;;;;;;4.50;3.00;;;;;;;;;;2107395;28;20419;-66
2023/11/16 04:35:03;;;;;;;3.50;3.20;;;;;;;;;;2105038;28;20028;-65
2023/11/16 04:36:28;;;;;;;5.53;2.92;;;;;;;;;;2107061;28;20039;-66
2023/11/16 04:37:49;;;;;;;4.05;2.88;;;;;;;;;;2108006;28;20509;-66
2023/11/16 04:39:08;;;;;;;7.47;3.53;;;;;;;;;;2105080;28;20485;-66
2023/11/16 04:40:27;;;;;;;3.47;3.17;;;;;;;;;;2107202;28;20035;-66
2023/11/16 04:41:46;;;;;;;5.05;3.25;;;;;;;;;;2104929;28;20024;-66
2023/11/16 04:43:05;;;;;;;5.45;3.53;;;;;;;;;;2105145;28;20040;-66
2023/11/16 04:44:24;;;;;;;4.75;3.17;;;;;;;;;;2108889;28;20463;-65
2023/11/16 04:45:43;;;;;;;3.47;3.17;;;;;;;;;;2105445;28;20023;-65
2023/11/16 04:47:02;;;;;;;4.03;2.97;;;;;;;;;;2107070;28;20024;-66
2023/11/16 04:48:21;;;;;;;3.65;3.25;;;;;;;;;;2108292;28;20028;-66
2023/11/16 04:49:41;;;;;;;4.97;3.47;;;;;;;;;;2109406;28;20380;-66
2023/11/16 04:51:03;;;;;;;6.05;3.72;;;;;;;;;;2108256;28;20032;-66
2023/11/16 04:52:23;;;;;;;3.03;2.75;;;;;;;;;;2104642;28;20032;-66
2023/11/16 04:53:43;;;;;;;6.13;3.38;;;;;;;;;;2106068;28;20083;-66
2023/11/16 04:55:03;;;;;;;4.90;2.95;;;;;;;;;;2108070;28;20102;-65
2023/11/16 04:56:22;;;;;;;4.90;2.90;;;;;;;;;;2107925;28;20155;-66
2023/11/16 04:57:41;;;;;;;6.25;3.00;;;;;;;;;;2107087;28;20547;-66
2023/11/16 04:59:00;;;;;;;3.55;3.28;;;;;;;;;;2107688;28;20609;-66
2023/11/16 05:00:20;;;;;;;7.03;2.92;;;;;;;;;;2107304;28;20107;-66
2023/11/16 05:01:39;;;;;;;7.68;3.00;;;;;;;;;;2109164;28;20039;-66
2023/11/16 05:02:58;;;;;;;5.00;3.22;;;;;;;;;;2106209;28;20067;-66
2023/11/16 05:04:16;;;;;;;4.70;3.10;;;;;;;;;;2107272;28;20028;-67
2023/11/16 05:05:35;;;;;;;2.88;2.67;;;;;;;;;;2108243;28;20103;-66
2023/11/16 05:06:54;;;;;;;2.97;2.78;;;;;;;;;;2108026;28;20015;-66
2023/11/16 05:08:13;;;;;;;5.03;2.92;;;;;;;;;;2110133;28;20036;-67
2023/11/16 05:09:32;;;;;;;3.47;3.08;;;;;;;;;;2107319;28;20036;-66
2023/11/16 05:10:52;;;;;;;4.95;3.67;;;;;;;;;;2107975;28;20106;-65
2023/11/16 05:12:11;;;;;;;5.55;3.25;;;;;;;;;;2107570;28;20148;-66
2023/11/16 05:13:30;;;;;;;3.85;2.85;;;;;;;;;;2100044;28;20028;-66
2023/11/16 05:14:48;;;;;;;3.28;2.70;;;;;;;;;;2105612;28;20028;-66
2023/11/16 05:16:08;;;;;;;4.35;3.15;;;;;;;;;;2109501;28;20399;-66
2023/11/16 05:17:27;;;;;;;8.52;3.80;;;;;;;;;;2104036;28;20395;-66
2023/11/16 05:18:46;;;;;;;5.40;3.33;;;;;;;;;;2106556;28;20035;-66
2023/11/16 05:20:06;;;;;;;6.30;2.95;;;;;;;;;;2103516;28;20118;-66
2023/11/16 05:21:26;;;;;;;6.20;3.13;;;;;;;;;;2104703;28;20597;-66
2023/11/16 05:22:45;;;;;;;7.25;3.40;;;;;;;;;;2108105;28;20118;-66
2023/11/16 05:24:05;;;;;;;4.25;3.08;;;;;;;;;;2105004;28;20687;-66
2023/11/16 05:25:24;;;;;;;4.18;3.33;;;;;;;;;;2105826;28;20039;-67
2023/11/16 05:26:44;;;;;;;4.18;3.10;;;;;;;;;;2104172;28;20031;-66
2023/11/16 05:28:04;;;;;;;4.72;3.58;;;;;;;;;;2101844;28;20020;-66
2023/11/16 05:29:23;;;;;;;3.65;2.92;;;;;;;;;;2102154;28;20035;-66
2023/11/16 05:30:43;;;;;;;3.88;3.50;;;;;;;;;;2101732;28;20028;-66
2023/11/16 05:32:02;;;;;;;4.18;2.70;;;;;;;;;;2106238;28;20024;-66
2023/11/16 05:33:24;;;;;;;4.00;3.10;;;;;;;;;;2102225;28;20111;-66
2023/11/16 05:34:44;;;;;;;5.35;3.30;;;;;;;;;;2108940;28;20016;-66
2023/11/16 05:36:03;;;;;;;4.60;3.00;;;;;;;;;;2108701;28;20024;-66
2023/11/16 05:37:23;;;;;;;11.27;3.35;;;;;;;;;;2106470;28;20480;-66
2023/11/16 05:38:43;;;;;;;4.60;3.38;;;;;;;;;;2104231;28;20032;-66
2023/11/16 05:40:05;;;;;;;7.43;3.45;;;;;;;;;;2107970;28;20023;-66
2023/11/16 05:41:24;;;;;;;6.30;3.60;;;;;;;;;;2106792;28;20024;-66
2023/11/16 05:42:42;;;;;;;7.78;3.70;;;;;;;;;;2103817;28;20024;-66
2023/11/16 05:44:01;;;;;;;6.47;3.75;;;;;;;;;;2104161;28;20086;-66
2023/11/16 05:45:20;;;;;;;5.65;3.88;;;;;;;;;;2104798;28;20044;-66
2023/11/16 05:46:39;;;;;;;9.75;3.50;;;;;;;;;;2106237;28;20032;-66
2023/11/16 05:47:58;;;;;;;3.35;3.05;;;;;;;;;;2107526;28;20047;-66
2023/11/16 05:49:17;;;;;;;4.60;3.20;;;;;;;;;;2107198;28;20028;-66
2023/11/16 05:50:37;;;;;;;4.63;3.03;;;;;;;;;;2104986;28;20024;-66
2023/11/16 05:51:55;;;;;;;5.88;3.20;;;;;;;;;;2107407;28;20384;-66
2023/11/16 05:53:15;;;;;;;3.45;3.00;;;;;;;;;;2107185;28;20028;-66
2023/11/16 05:54:34;;;;;;;3.63;2.80;;;;;;;;;;2109499;28;20028;-66
2023/11/16 05:55:55;;;;;;;3.05;2.80;;;;;;;;;;2107678;28;20024;-67
2023/11/16 05:57:14;;;;;;;3.55;2.97;;;;;;;;;;2107137;28;20583;-66
2023/11/16 05:58:33;;;;;;;8.48;3.60;;;;;;;;;;2110306;28;20099;-66
2023/11/16 05:59:52;;;;;;;4.40;3.55;;;;;;;;;;2106421;28;20028;-66
2023/11/16 06:01:13;;;;;;;3.42;3.13;;;;;;;;;;2104296;28;20032;-66
2023/11/16 06:02:34;;;;;;;8.43;3.28;;;;;;;;;;2107110;28;20017;-66
2023/11/16 06:03:52;;;;;;;6.57;2.90;;;;;;;;;;2107316;28;20476;-66
2023/11/16 06:05:12;;;;;;;6.43;3.08;;;;;;;;;;2105147;28;20032;-66
2023/11/16 06:06:31;;;;;;;7.00;3.72;;;;;;;;;;2103870;28;20016;-66
2023/11/16 06:07:50;;;;;;;4.28;3.15;;;;;;;;;;2104967;28;20476;-66
2023/11/16 06:09:09;;;;;;;4.53;2.95;;;;;;;;;;2105743;28;20039;-66
2023/11/16 06:10:28;;;;;;;5.28;3.03;;;;;;;;;;2106943;28;20032;-65
2023/11/16 06:11:47;;;;;;;4.78;2.78;;;;;;;;;;2106770;28;20106;-66
2023/11/16 06:13:06;;;;;;;3.08;2.85;;;;;;;;;;2107236;28;20032;-66
2023/11/16 06:14:25;;;;;;;5.75;3.08;;;;;;;;;;2106762;28;20106;-65
2023/11/16 06:15:47;;;;;;;6.13;3.05;;;;;;;;;;2106717;28;20480;-66
2023/11/16 06:17:05;;;;;;;10.15;2.80;;;;;;;;;;2104511;28;20134;-65
2023/11/16 06:18:26;;;;;;;6.07;3.03;;;;;;;;;;2106970;28;20070;-65
2023/11/16 06:19:45;;;;;;;9.98;3.33;;;;;;;;;;2107011;28;20028;-66
2023/11/16 06:21:04;;;;;;;6.57;3.13;;;;;;;;;;2106313;28;20028;-66
2023/11/16 06:22:23;;;;;;;4.22;2.58;;;;;;;;;;2109572;28;20020;-65
2023/11/16 06:23:43;;;;;;;10.05;3.33;;;;;;;;;;2108235;28;20114;-65
2023/11/16 06:25:04;;;;;;;3.78;3.00;;;;;;;;;;2109379;28;20032;-66
2023/11/16 06:26:25;;;;;;;10.13;3.28;;;;;;;;;;2105796;28;20028;-66
2023/11/16 06:27:45;;;;;;;7.38;3.20;;;;;;;;;;2108038;28;20035;-66
2023/11/16 06:29:06;;;;;;;3.90;2.53;;;;;;;;;;2104048;28;20024;-65
2023/11/16 06:30:25;;;;;;;3.95;3.13;;;;;;;;;;2107893;28;20028;-66
2023/11/16 06:31:44;;;;;;;4.30;2.75;;;;;;;;;;2108737;28;20036;-66
2023/11/16 06:33:04;;;;;;;4.63;3.00;;;;;;;;;;2109320;28;20587;-66
2023/11/16 06:34:23;;;;;;;8.38;3.30;;;;;;;;;;2108321;28;20131;-65
2023/11/16 06:35:42;;;;;;;4.88;3.50;;;;;;;;;;2107308;28;20395;-65
2023/11/16 06:37:01;;;;;;;4.13;3.20;;;;;;;;;;2108890;28;20024;-66
2023/11/16 06:38:20;;;;;;;3.30;3.00;;;;;;;;;;2106600;28;20028;-66
2023/11/16 06:39:38;;;;;;;8.95;3.42;;;;;;;;;;2105730;28;20608;-65
2023/11/16 06:40:58;;;;;;;7.60;2.95;;;;;;;;;;2106276;28;20028;-66
2023/11/16 06:42:17;;;;;;;6.63;3.10;;;;;;;;;;2107659;28;20031;-66
2023/11/16 06:43:36;;;;;;;6.07;2.90;;;;;;;;;;2107521;28;20028;-66
2023/11/16 06:44:55;;;;;;;2.78;2.58;;;;;;;;;;2107461;28;20065;-66
2023/11/16 06:46:15;;;;;;;10.77;3.03;;;;;;;;;;2108790;28;20025;-66
2023/11/16 06:47:34;;;;;;;13.15;3.20;;;;;;;;;;2110240;28;20020;-66
2023/11/16 06:48:55;;;;;;;3.22;2.70;;;;;;;;;;2107994;28;20316;-66
2023/11/16 06:50:16;;;;;;;3.55;2.33;;;;;;;;;;2108127;28;20036;-66
2023/11/16 06:51:35;;;;;;;6.80;3.42;;;;;;;;;;2109010;28;20043;-66
2023/11/16 06:52:54;;;;;;;5.68;3.50;;;;;;;;;;2108198;28;20032;-66
2023/11/16 06:54:15;;;;;;;8.15;2.95;;;;;;;;;;2106900;28;20040;-66
2023/11/16 06:55:34;;;;;;;13.05;3.55;;;;;;;;;;2107031;28;20020;-65
2023/11/16 06:56:55;;;;;;;5.10;3.10;;;;;;;;;;2109837;28;20027;-66
2023/11/16 06:58:14;;;;;;;5.55;3.28;;;;;;;;;;2110004;28;20036;-66
2023/11/16 06:59:34;;;;;;;6.32;3.75;;;;;;;;;;2109085;28;21094;-66
2023/11/16 07:00:55;;;;;;;3.63;3.20;;;;;;;;;;2107548;28;20040;-66
2023/11/16 07:02:15;;;;;;;3.95;3.00;;;;;;;;;;2106807;28;20036;-67
2023/11/16 07:03:34;;;;;;;6.50;3.22;;;;;;;;;;2107270;28;20115;-66
2023/11/16 07:04:53;;;;;;;7.22;3.05;;;;;;;;;;2109082;28;20024;-67
2023/11/16 07:06:13;;;;;;;5.38;2.83;;;;;;;;;;2108746;28;20019;-67
2023/11/16 07:07:32;;;;;;;6.35;3.80;;;;;;;;;;2107614;28;20032;-67
2023/11/16 07:08:51;;;;;;;6.88;3.05;;;;;;;;;;2108170;28;20028;-66
2023/11/16 07:10:10;;;;;;;6.82;3.30;;;;;;;;;;2107696;28;20388;-66
2023/11/16 07:11:29;;;;;;;6.78;3.83;;;;;;;;;;2105216;28;20028;-66
2023/11/16 07:12:48;;;;;;;4.85;3.30;;;;;;;;;;2108557;28;20024;-66
2023/11/16 07:14:07;;;;;;;5.97;3.50;;;;;;;;;;2109756;28;20055;-66
2023/11/16 07:15:28;;;;;;;4.78;3.15;;;;;;;;;;2108807;28;20055;-66
2023/11/16 07:16:47;;;;;;;7.05;3.42;;;;;;;;;;2110419;28;20028;-66
2023/11/16 07:18:08;;;;;;;4.55;3.03;;;;;;;;;;2109573;28;20114;-65
2023/11/16 07:19:28;;;;;;;4.85;3.28;;;;;;;;;;2110160;28;20023;-65
2023/11/16 07:20:51;;;;;;;10.73;3.55;;;;;;;;;;2109019;28;20032;-66
2023/11/16 07:22:10;;;;;;;4.97;3.72;;;;;;;;;;2110594;28;20032;-66
2023/11/16 07:23:30;;;;;;;6.13;3.22;;;;;;;;;;2107471;28;20027;-66
2023/11/16 07:24:49;;;;;;;8.73;3.78;;;;;;;;;;2105921;28;20028;-66
2023/11/16 07:26:09;;;;;;;5.82;3.38;;;;;;;;;;2109556;28;20473;-66
2023/11/16 07:27:29;;;;;;;11.20;3.97;;;;;;;;;;2109165;28;20107;-65
2023/11/16 07:28:48;;;;;;;6.47;3.03;;;;;;;;;;2104273;28;20488;-65
2023/11/16 07:30:09;;;;;;;4.00;3.08;;;;;;;;;;2108276;28;20027;-66
2023/11/16 07:31:29;;;;;;;10.63;3.47;;;;;;;;;;2109989;28;20023;-66
2023/11/16 07:32:48;;;;;;;8.30;3.55;;;;;;;;;;2109369;28;20031;-66
2023/11/16 07:34:07;;;;;;;9.23;3.72;;;;;;;;;;2107450;28;20019;-66
2023/11/16 07:35:26;;;;;;;9.48;3.55;;;;;;;;;;2106395;28;20020;-66
2023/11/16 07:36:47;;;;;;;7.53;3.75;;;;;;;;;;2109451;28;20476;-66
2023/11/16 07:38:07;;;;;;;9.27;3.50;;;;;;;;;;2108507;28;20496;-66
2023/11/16 07:39:26;;;;;;;5.35;3.40;;;;;;;;;;2109991;28;20032;-65
2023/11/16 07:40:45;;;;;;;5.35;4.55;;;;;;;;;;2107854;28;20032;-65
2023/11/16 07:42:04;;;;;;;6.25;3.80;;;;;;;;;;2108990;28;20036;-66
2023/11/16 07:43:24;;;;;;;6.88;4.13;;;;;;;;;;2108661;28;20043;-65
2023/11/16 07:44:45;;;;;;;8.68;4.03;;;;;;;;;;2103466;28;20428;-66
2023/11/16 07:46:04;;;;;;;6.45;4.68;;;;;;;;;;2107234;28;20032;-66
2023/11/16 07:47:23;;;;;;;6.78;3.80;;;;;;;;;;2110020;28;20115;-66
2023/11/16 07:48:42;;;;;;;5.95;4.18;;;;;;;;;;2108184;28;20021;-65
2023/11/16 07:50:04;;;;;;;6.30;3.50;;;;;;;;;;2108365;28;20383;-65
2023/11/16 07:51:24;;;;;;;10.53;4.43;;;;;;;;;;2108863;28;20103;-65
2023/11/16 07:52:44;;;;;;;4.68;3.83;;;;;;;;;;2110045;28;20324;-66
2023/11/16 07:54:04;;;;;;;8.82;4.50;;;;;;;;;;2107739;28;20031;-66
2023/11/16 07:55:25;;;;;;;6.97;4.50;;;;;;;;;;2109392;28;20587;-65
2023/11/16 07:56:51;;;;;;;8.13;4.90;;;;;;;;;;2109430;28;20032;-66
2023/11/16 07:58:13;;;;;;;7.93;4.78;;;;;;;;;;2108468;28;20032;-66